Time;durP1;ratioP1;P1;durP2;ratioP2;P2;SDS_P1;SDS_P2;PMS_P1;PMS_P2;Temp;Humidity;BMP_temperature;BMP_pressure;BME280_temperature;BME280_humidity;BME280_pressure;Samples;Min_cycle;Max_cycle;Signal;HPM_P1;HPM_P2
2022/01/24 00:00:17;;;;;;;10.55;4.60;;;;;;;-2.23;98.82;100046.50;5031959;28;20154;-83
2022/01/24 00:02:44;;;;;;;10.50;4.63;;;;;;;-3.79;98.89;99779.16;5032148;28;20170;-84
2022/01/24 00:05:11;;;;;;;9.30;4.72;;;;;;;-2.59;99.94;100027.81;5032876;28;20170;-82
2022/01/24 00:07:37;;;;;;;9.65;4.35;;;;;;;-2.25;100.00;100095.03;5031551;28;20202;-82
2022/01/24 00:10:07;;;;;;;9.70;4.50;;;;;;;-1.88;100.00;100152.69;5031733;28;20533;-83
2022/01/24 00:15:47;;;;;;;7.57;2.85;;;;;;;-3.01;100.00;99952.38;5032568;28;20220;-84
2022/01/24 00:18:12;;;;;;;10.27;4.45;;;;;;;-2.58;100.00;100029.59;5020445;28;20316;-84
2022/01/24 00:28:49;;;;;;;11.35;5.53;;;;;;;-2.29;99.74;100092.97;5031509;28;20533;-82
2022/01/24 00:31:15;;;;;;;8.93;4.40;;;;;;;-3.32;100.00;99913.63;5033824;28;20186;-81
2022/01/24 00:33:40;;;;;;;11.60;5.13;;;;;;;-2.45;99.49;100059.88;5031619;28;20313;-83
2022/01/24 00:36:06;;;;;;;12.37;5.23;;;;;;;-3.03;99.43;99962.13;5032412;28;20176;-83
2022/01/24 00:38:32;;;;;;;12.30;5.33;;;;;;;-1.93;99.04;100177.75;5031438;28;20610;-82
2022/01/24 00:40:58;;;;;;;13.25;7.10;;;;;;;-3.63;99.41;99874.94;5031336;28;20212;-82
2022/01/24 00:46:06;;;;;;;41.20;16.60;;;;;;;-1.80;99.55;100184.13;5031421;28;20248;-83
2022/01/24 00:48:41;;;;;;;55.65;25.13;;;;;;;-2.44;100.00;100108.69;5031224;28;20284;-82
2022/01/24 00:56:16;;;;;;;79.97;30.80;;;;;;;-2.32;100.00;100117.44;5035219;28;20174;-83
2022/01/24 00:58:42;;;;;;;43.20;16.30;;;;;;;-2.91;100.00;100001.28;5034764;28;20170;-83
2022/01/24 01:01:08;;;;;;;18.30;8.10;;;;;;;-2.97;99.73;100007.34;5035884;28;20241;-83
2022/01/24 01:03:33;;;;;;;31.73;12.80;;;;;;;-3.16;99.65;99983.84;5035657;28;20662;-82
2022/01/24 01:19:27;;;;;;;12.13;5.78;;;;;;;-2.45;100.00;100144.13;4973684;28;20327;-82
2022/01/24 01:21:52;;;;;;;15.27;6.90;;;;;;;-2.69;100.00;100095.34;4975121;28;20212;-83
2022/01/24 01:24:18;;;;;;;14.73;6.90;;;;;;;-2.53;100.00;100143.31;4974246;28;20644;-84
2022/01/24 01:26:53;;;;;;;18.45;8.25;;;;;;;-5.60;100.00;99618.13;4972898;28;20165;-81
2022/01/24 01:29:26;;;;;;;19.58;8.88;;;;;;;-2.20;100.00;100229.41;4972669;28;20695;-82
2022/01/24 01:56:00;;;;;;;35.88;16.92;;;;;;;-3.37;100.00;100060.78;4935055;29;20655;-83
2022/01/24 01:58:26;;;;;;;28.20;13.27;;;;;;;-2.93;100.00;100161.22;4935099;29;20190;-83
2022/01/24 02:00:55;;;;;;;32.13;15.07;;;;;;;-3.69;100.00;100039.09;4918499;29;20248;-83
2022/01/24 02:03:22;;;;;;;39.95;19.50;;;;;;;-2.65;100.00;100210.53;4934019;29;20197;-83
2022/01/24 02:05:47;;;;;;;31.90;14.23;;;;;;;-2.64;100.00;100217.25;4934092;29;20261;-83
2022/01/24 02:08:15;;;;;;;36.77;15.67;;;;;;;-2.61;100.00;100218.44;4934064;29;20698;-83
2022/01/24 02:10:42;;;;;;;32.85;14.82;;;;;;;-3.09;100.00;100154.63;4935013;29;20252;-82
2022/01/24 02:13:08;;;;;;;34.42;15.77;;;;;;;-3.24;100.00;100133.16;4934475;29;21079;-83
2022/01/24 02:20:54;;;;;;;20.85;9.82;;;;;;;-3.18;100.00;100147.78;5029776;28;20571;-83
2022/01/24 02:25:52;;;;;;;11.93;4.47;;;;;;;-2.95;100.00;100227.03;5033610;28;20174;-82
2022/01/24 02:28:20;;;;;;;13.50;5.53;;;;;;;-4.64;100.00;99959.34;5034869;28;20205;-82
2022/01/24 02:33:25;;;;;;;18.88;7.85;;;;;;;-4.24;100.00;100082.50;5033207;28;20247;-82
2022/01/24 02:35:50;;;;;;;28.47;11.73;;;;;;;-3.89;100.00;100152.28;5033357;28;20256;-82
2022/01/24 02:38:33;;;;;;;24.17;9.80;;;;;;;-3.90;100.00;100155.47;5033227;28;20900;-83
2022/01/24 02:49:12;;;;;;;25.15;11.40;;;;;;;-3.13;100.00;100233.38;5032961;28;20284;-82
2022/01/24 02:54:06;;;;;;;28.30;11.38;;;;;;;-3.00;100.00;100232.38;5033220;28;20551;-82
2022/01/24 02:56:32;;;;;;;21.58;8.45;;;;;;;-3.53;100.00;100146.44;5032790;28;20185;-82
2022/01/24 02:58:57;;;;;;;17.20;7.40;;;;;;;-3.72;100.00;100103.09;5032871;28;20690;-82
2022/01/24 03:01:23;;;;;;;19.77;8.67;;;;;;;-4.25;100.00;100018.06;5032658;28;20162;-83
2022/01/24 03:03:48;;;;;;;17.97;7.97;;;;;;;-3.96;100.00;100088.03;5032609;28;20174;-82
2022/01/24 03:06:13;;;;;;;22.73;9.83;;;;;;;-3.06;100.00;100253.13;5014953;28;20166;-82
2022/01/24 03:08:41;;;;;;;24.73;9.93;;;;;;;-3.88;100.00;100092.22;5014788;28;20210;-83
2022/01/24 03:11:07;;;;;;;26.10;12.35;;;;;;;-3.32;100.00;100224.59;5033017;28;20158;-83
2022/01/24 03:13:33;;;;;;;41.67;20.00;;;;;;;-3.14;100.00;100288.53;5032711;28;20174;-83
2022/01/24 03:16:01;;;;;;;23.70;10.87;;;;;;;-4.22;100.00;100045.59;5031936;28;20165;-83
2022/01/24 03:18:28;;;;;;;18.67;8.23;;;;;;;-3.04;100.00;100267.41;5032476;28;20177;-82
2022/01/24 03:20:54;;;;;;;18.45;7.78;;;;;;;-4.78;100.00;99963.63;5032391;28;20307;-82
2022/01/24 03:23:22;;;;;;;17.05;7.18;;;;;;;-2.95;100.00;100279.03;5032553;28;20166;-82
2022/01/24 03:25:48;;;;;;;21.55;8.23;;;;;;;-3.67;100.00;100129.19;5032573;28;20613;-82
2022/01/24 03:28:13;;;;;;;19.13;8.80;;;;;;;-2.83;100.00;100287.84;5032234;28;20190;-83
2022/01/24 03:30:40;;;;;;;17.43;7.87;;;;;;;-3.60;100.00;100139.06;5032168;28;20189;-83
2022/01/24 03:33:06;;;;;;;16.98;7.03;;;;;;;-2.71;100.00;100279.22;5032683;28;20216;-82
2022/01/24 03:35:33;;;;;;;17.52;7.68;;;;;;;-3.14;100.00;100210.19;5032165;28;20181;-82
2022/01/24 03:37:59;;;;;;;20.92;8.73;;;;;;;-3.57;100.00;100149.28;5032939;28;20673;-83
2022/01/24 03:40:24;;;;;;;22.00;9.45;;;;;;;-4.06;100.00;100100.06;5032283;28;20173;-82
2022/01/24 03:42:50;;;;;;;25.13;11.17;;;;;;;-3.75;100.00;100201.69;5032277;28;20162;-82
2022/01/24 03:45:23;;;;;;;33.97;14.77;;;;;;;-4.92;100.00;100008.13;5033629;28;20390;-83
2022/01/24 03:48:08;;;;;;;36.28;14.65;;;;;;;-6.56;100.00;99721.47;5014537;28;20245;-82
2022/01/24 03:50:34;;;;;;;64.38;23.45;;;;;;;-3.12;100.00;100284.63;5033189;28;20162;-83
2022/01/24 03:52:59;;;;;;;43.33;19.23;;;;;;;-3.06;100.00;100286.19;5033488;28;20224;-83
2022/01/24 03:55:24;;;;;;;39.37;16.00;;;;;;;-5.82;100.00;99790.63;5035632;28;20511;-82
2022/01/24 03:57:50;;;;;;;36.20;14.90;;;;;;;-4.32;100.00;100077.44;5032810;28;20169;-83
2022/01/24 04:00:15;;;;;;;78.50;28.77;;;;;;;-5.27;100.00;99893.84;5032532;28;20159;-82
2022/01/24 04:02:41;;;;;;;57.53;24.83;;;;;;;-3.85;100.00;100132.13;5032331;28;20292;-82
2022/01/24 04:05:07;;;;;;;57.80;24.77;;;;;;;-3.06;100.00;100283.72;5031610;28;20244;-82
2022/01/24 04:07:33;;;;;;;50.93;22.10;;;;;;;-3.06;100.00;100276.28;5031781;28;20297;-83
2022/01/24 04:10:05;;;;;;;58.05;23.23;;;;;;;-3.21;100.00;100227.53;5031515;28;20181;-83
2022/01/24 04:12:31;;;;;;;58.78;26.25;;;;;;;-3.29;100.00;100188.69;5031755;28;20194;-82
2022/01/24 04:15:10;;;;;;;83.70;36.00;;;;;;;-3.55;100.00;100144.50;5031813;28;20669;-82
2022/01/24 04:17:45;;;;;;;68.55;29.85;;;;;;;-3.04;100.00;100230.28;5031945;28;20162;-82
2022/01/24 04:22:58;;;;;;;132.60;42.75;;;;;;;-2.99;100.00;100240.69;5030993;28;20696;-83
2022/01/24 04:25:24;;;;;;;150.60;51.25;;;;;;;-2.60;100.00;100319.34;5031269;28;20555;-83
2022/01/24 04:27:54;;;;;;;146.97;53.10;;;;;;;-2.91;100.00;100318.31;5034203;28;20190;-82
2022/01/24 04:30:21;;;;;;;98.03;36.55;;;;;;;-3.23;100.00;100278.50;5035146;28;20154;-82
2022/01/24 04:32:47;;;;;;;66.93;27.98;;;;;;;-3.12;100.00;100321.75;5035534;28;20254;-82
2022/01/24 04:35:12;;;;;;;92.07;36.30;;;;;;;-3.29;100.00;100291.78;5035321;28;20202;-82
2022/01/24 04:37:38;;;;;;;69.70;29.57;;;;;;;-3.27;100.00;100320.09;5034550;28;20165;-82
2022/01/24 04:40:04;;;;;;;58.37;25.67;;;;;;;-6.69;100.00;99694.59;5035554;28;20194;-82
2022/01/24 04:42:51;;;;;;;52.65;22.50;;;;;;;-4.07;100.00;100165.97;5034960;28;20178;-82
2022/01/24 04:45:34;;;;;;;48.83;21.35;;;;;;;-3.60;100.00;100218.22;5035243;28;20177;-82
2022/01/24 04:50:47;;;;;;;61.38;25.70;;;;;;;-2.64;100.00;100351.06;5034524;28;20623;-83
2022/01/24 04:53:44;;;;;;;67.82;28.83;;;;;;;-4.77;100.00;100013.88;5035191;28;20557;-83
2022/01/24 04:56:01;;;;;;;49.60;21.25;;;;;;;-4.90;100.00;100032.97;5034769;28;20171;-82
2022/01/24 04:58:26;;;;;;;39.00;18.37;;;;;;;-3.12;100.00;100369.69;5034928;28;20227;-80
2022/01/24 05:00:52;;;;;;;51.97;22.73;;;;;;;-3.90;100.00;100237.06;5034155;28;20198;-82
2022/01/24 05:03:18;;;;;;;56.20;25.40;;;;;;;-3.00;100.00;100375.13;5035668;28;20240;-82
2022/01/24 05:05:44;;;;;;;56.60;24.33;;;;;;;-4.04;100.00;100195.97;5035334;28;20623;-83
2022/01/24 05:08:10;;;;;;;46.33;21.23;;;;;;;-3.86;100.00;100226.81;5034797;28;20252;-83
2022/01/24 05:10:42;;;;;;;38.58;17.13;;;;;;;-3.20;100.00;100347.28;5033030;28;20170;-82
2022/01/24 05:21:37;;;;;;;38.75;16.65;;;;;;;-3.37;100.00;100285.97;5034667;28;20220;-82
2022/01/24 05:24:03;;;;;;;33.25;14.63;;;;;;;-3.11;100.00;100358.22;5033530;28;20209;-83
2022/01/24 05:26:28;;;;;;;48.73;19.57;;;;;;;-3.40;100.00;100302.97;5034391;28;20671;-82
2022/01/24 05:28:54;;;;;;;69.63;30.30;;;;;;;-3.70;100.00;100270.75;5034306;28;20271;-82
2022/01/24 05:31:21;;;;;;;78.67;35.00;;;;;;;-3.32;100.00;100348.38;5034544;28;20686;-82
2022/01/24 05:33:46;;;;;;;57.08;27.30;;;;;;;-3.53;100.00;100297.38;5034128;28;20241;-82
2022/01/24 05:36:11;;;;;;;47.97;24.07;;;;;;;-2.95;100.00;100395.44;5016374;28;20225;-82
2022/01/24 05:38:37;;;;;;;42.47;17.57;;;;;;;-4.37;100.00;100155.97;5033386;28;20158;-83
2022/01/24 05:41:02;;;;;;;42.40;17.80;;;;;;;-3.13;100.00;100376.97;5034552;28;20197;-83
2022/01/24 05:43:28;;;;;;;40.60;18.83;;;;;;;-4.24;100.00;100171.47;5034044;28;20300;-82
2022/01/24 05:45:53;;;;;;;51.27;24.33;;;;;;;-4.85;100.00;100091.16;5034216;28;20171;-82
2022/01/24 05:48:19;;;;;;;64.70;28.67;;;;;;;-2.77;100.00;100417.31;5034237;28;20190;-83
2022/01/24 05:50:44;;;;;;;73.03;31.67;;;;;;;-4.90;100.00;100046.22;5033729;28;20166;-83
2022/01/24 05:53:10;;;;;;;80.07;36.00;;;;;;;-3.23;100.00;100337.91;5033696;28;20462;-82
2022/01/24 05:55:35;;;;;;;100.93;41.87;;;;;;;-4.99;100.00;100044.28;5033713;28;20241;-82
2022/01/24 05:58:01;;;;;;;120.83;41.33;;;;;;;-2.62;100.00;100433.88;5033688;28;20557;-82
2022/01/24 06:00:26;;;;;;;90.60;37.57;;;;;;;-6.56;100.00;99800.22;5020697;28;20240;-82
2022/01/24 06:02:52;;;;;;;83.03;34.53;;;;;;;-3.42;100.00;100311.81;5033042;28;20239;-83
2022/01/24 06:05:18;;;;;;;62.10;28.67;;;;;;;-2.62;100.00;100442.19;5033102;28;20219;-82
2022/01/24 06:07:43;;;;;;;75.82;32.75;;;;;;;-2.50;100.00;100440.22;5032980;28;20582;-83
2022/01/24 06:10:10;;;;;;;79.17;33.03;;;;;;;-3.92;100.00;100202.28;5033672;28;20174;-83
2022/01/24 06:12:35;;;;;;;83.95;36.47;;;;;;;-2.32;100.00;100448.75;5033581;28;20178;-84
2022/01/24 06:15:03;;;;;;;80.20;33.10;;;;;;;-2.50;100.00;100412.94;5033691;28;20554;-83
2022/01/24 06:17:29;;;;;;;79.82;34.60;;;;;;;-2.26;100.00;100451.91;5033457;28;20162;-83
2022/01/24 06:19:54;;;;;;;84.77;34.53;;;;;;;-3.75;100.00;100175.34;5033598;28;20613;-82
2022/01/24 06:22:20;;;;;;;81.13;33.27;;;;;;;-2.05;100.00;100464.19;5033009;28;20170;-83
2022/01/24 06:24:46;;;;;;;73.03;31.17;;;;;;;-2.01;100.00;100459.75;5033342;28;20160;-82
2022/01/24 06:27:11;;;;;;;86.13;36.73;;;;;;;-2.79;100.00;100332.03;5034069;28;20232;-82
2022/01/24 06:29:37;;;;;;;86.20;37.07;;;;;;;-1.99;100.00;100482.22;5033645;28;20170;-83
2022/01/24 06:32:02;;;;;;;92.63;37.67;;;;;;;-2.56;100.00;100375.09;5033288;28;20236;-83
2022/01/24 06:34:28;;;;;;;102.93;42.40;;;;;;;-2.71;100.00;100324.72;5033498;28;20217;-82
2022/01/24 06:36:53;;;;;;;109.67;43.57;;;;;;;-2.50;100.00;100348.50;5016172;28;20177;-85
2022/01/24 06:39:19;;;;;;;109.70;45.43;;;;;;;-1.61;100.00;100496.28;5015189;28;20260;-82
2022/01/24 06:41:51;;;;;;;93.43;40.87;;;;;;;-2.25;100.00;100350.41;5034042;28;20200;-83
2022/01/24 06:44:17;;;;;;;93.43;40.05;;;;;;;-2.89;99.55;100235.13;5015746;28;20166;-82
2022/01/24 06:46:44;;;;;;;96.50;44.20;;;;;;;-3.92;98.32;100040.66;5032588;28;20162;-82
2022/01/24 06:49:10;;;;;;;77.57;36.00;;;;;;;-2.64;97.62;100266.81;5032971;28;20178;-82
2022/01/24 06:51:35;;;;;;;87.33;35.73;;;;;;;-3.26;97.16;100181.63;5013968;28;20209;-83
2022/01/24 06:54:01;;;;;;;99.07;41.60;;;;;;;-3.84;97.60;100121.50;5032421;28;20241;-83
2022/01/24 06:56:26;;;;;;;98.00;41.37;;;;;;;-2.09;98.45;100458.03;5032629;28;20249;-83
2022/01/24 06:58:51;;;;;;;99.10;40.67;;;;;;;-4.38;99.04;100092.44;5032936;28;20624;-82
2022/01/24 07:01:17;;;;;;;94.60;38.90;;;;;;;-2.60;99.56;100395.28;5022990;28;20225;-81
2022/01/24 07:03:42;;;;;;;82.20;30.73;;;;;;;-1.96;99.28;100567.78;5032456;28;20171;-82
2022/01/24 07:06:08;;;;;;;84.10;35.30;;;;;;;-2.78;100.00;100442.81;5032446;28;20630;-82
2022/01/24 07:08:33;;;;;;;84.97;35.17;;;;;;;-2.19;100.00;100522.19;5032221;28;20276;-83
2022/01/24 07:10:59;;;;;;;104.87;43.33;;;;;;;-2.66;100.00;100430.16;5032076;28;20241;-83
2022/01/24 07:13:24;;;;;;;91.23;37.53;;;;;;;-5.00;100.00;100027.72;5031247;28;20202;-83
2022/01/24 07:15:54;;;;;;;86.73;36.17;;;;;;;-2.25;100.00;100442.16;5031820;28;20639;-83
2022/01/24 07:21:09;;;;;;;67.00;30.35;;;;;;;-1.92;98.16;100425.97;5010045;28;20203;-83
2022/01/24 07:23:35;;;;;;;71.10;30.10;;;;;;;-2.91;98.08;100278.69;5009747;28;20190;-83
2022/01/24 07:26:01;;;;;;;65.47;30.33;;;;;;;-2.52;98.08;100301.22;5010061;28;20179;-82
2022/01/24 07:28:27;;;;;;;64.22;29.55;;;;;;;-2.07;96.37;100340.00;5010787;28;20195;-84
2022/01/24 07:30:52;;;;;;;61.57;27.73;;;;;;;-3.00;95.27;100190.28;5010147;28;20615;-82
2022/01/24 07:33:17;;;;;;;64.73;30.03;;;;;;;-1.68;95.40;100360.75;5009027;28;20222;-83
2022/01/24 07:35:44;;;;;;;62.30;28.67;;;;;;;-0.75;93.55;100451.78;5009908;28;20186;-83
2022/01/24 07:38:10;;;;;;;60.33;28.05;;;;;;;0.03;91.26;100574.28;5009777;28;20294;-84
2022/01/24 07:40:40;;;;;;;66.27;29.23;;;;;;;-0.23;90.27;100490.38;4993191;28;20281;-84
2022/01/24 07:43:15;;;;;;;61.83;27.42;;;;;;;0.16;90.05;100564.84;5009119;28;20257;-83
2022/01/24 07:45:43;;;;;;;54.55;24.38;;;;;;;-1.10;87.43;100365.25;4988245;28;20580;-83
2022/01/24 07:48:08;;;;;;;56.10;23.35;;;;;;;-1.12;89.93;100457.69;5007325;28;20194;-84
2022/01/24 07:50:37;;;;;;;55.70;24.33;;;;;;;-0.29;89.71;100570.94;5008916;28;20182;-83
2022/01/24 07:53:03;;;;;;;56.72;26.10;;;;;;;-0.21;90.27;100578.47;5010008;28;20174;-83
2022/01/24 07:55:29;;;;;;;58.20;24.77;;;;;;;-2.18;88.07;100161.91;4995339;28;20194;-83
2022/01/24 07:57:55;;;;;;;47.22;21.10;;;;;;;-2.01;85.69;100213.28;5020656;28;20193;-84
2022/01/24 08:00:20;;;;;;;42.20;18.97;;;;;;;-2.95;84.73;100057.03;5020067;28;20169;-84
2022/01/24 08:02:46;;;;;;;44.50;19.17;;;;;;;-3.52;85.47;99917.22;5033289;28;20631;-84
2022/01/24 08:05:11;;;;;;;46.87;20.70;;;;;;;-1.53;83.84;100248.16;5036417;28;20197;-84
2022/01/24 08:07:38;;;;;;;48.07;21.07;;;;;;;-1.13;82.56;100225.81;5035537;28;20194;-83
2022/01/24 08:10:05;;;;;;;50.58;22.67;;;;;;;-0.38;79.62;100283.94;5036826;28;20164;-85
2022/01/24 08:12:31;;;;;;;74.90;29.42;;;;;;;0.90;76.08;100430.38;5037917;28;20178;-84
2022/01/24 08:15:00;;;;;;;65.85;24.75;;;;;;;-1.05;75.56;100234.94;5035741;28;20170;-84
2022/01/24 08:17:26;;;;;;;55.33;24.70;;;;;;;-1.61;75.58;100071.84;5035172;28;20150;-85
2022/01/24 08:19:52;;;;;;;37.70;16.97;;;;;;;0.92;67.88;100501.19;5034925;28;20177;-84
2022/01/24 08:22:18;;;;;;;36.33;16.17;;;;;;;-1.51;65.31;100079.53;5035977;28;20181;-84
2022/01/24 08:24:44;;;;;;;50.95;23.08;;;;;;;0.81;67.14;100444.41;5035840;28;20177;-83
2022/01/24 08:27:10;;;;;;;66.40;29.07;;;;;;;1.33;66.02;100590.91;5032076;28;20206;-83
2022/01/24 08:29:35;;;;;;;60.80;27.30;;;;;;;0.09;66.54;100346.78;5037514;28;20173;-84
2022/01/24 08:32:00;;;;;;;89.60;36.73;;;;;;;0.78;65.17;100449.97;5034554;28;20166;-83
2022/01/24 08:34:26;;;;;;;47.43;20.67;;;;;;;-1.04;60.85;100114.94;5034095;28;20751;-84
2022/01/24 08:36:51;;;;;;;32.03;15.73;;;;;;;0.33;59.58;100338.38;5033950;28;20236;-83
2022/01/24 08:39:17;;;;;;;40.27;17.23;;;;;;;1.17;58.47;100467.94;5035319;28;20588;-84
2022/01/24 08:46:47;;;;;;;28.80;14.73;;;;;;;1.92;55.03;100594.22;5035546;28;20494;-83
2022/01/24 08:49:13;;;;;;;32.60;16.40;;;;;;;2.09;56.07;100603.31;5029700;28;20452;-83
2022/01/24 08:51:39;;;;;;;31.93;15.80;;;;;;;1.91;55.76;100604.03;5033383;28;20409;-83
2022/01/24 08:54:06;;;;;;;31.87;14.90;;;;;;;-0.07;55.65;100253.91;5015564;28;20271;-84
2022/01/24 08:56:33;;;;;;;28.30;13.83;;;;;;;1.91;56.23;100609.03;5019458;28;20592;-83
2022/01/24 08:58:59;;;;;;;24.50;12.17;;;;;;;1.29;54.42;100466.63;5017803;28;20588;-83
2022/01/24 09:01:25;;;;;;;24.30;12.87;;;;;;;1.47;53.08;100494.94;5024734;28;20460;-83
2022/01/24 09:03:50;;;;;;;22.97;10.87;;;;;;;0.65;50.09;100366.41;5035174;28;20436;-83
2022/01/24 09:06:18;;;;;;;22.47;10.90;;;;;;;1.76;48.73;100524.44;5034860;28;20232;-83
2022/01/24 09:08:44;;;;;;;20.77;10.57;;;;;;;1.99;48.49;100545.72;5034835;28;20194;-83
2022/01/24 09:11:09;;;;;;;25.53;11.53;;;;;;;2.24;47.21;100628.16;5034312;28;20431;-83
2022/01/24 09:13:35;;;;;;;24.40;11.90;;;;;;;1.52;47.69;100481.31;5033406;28;20405;-84
2022/01/24 09:16:01;;;;;;;29.93;13.40;;;;;;;2.68;47.49;100633.97;5034600;28;20166;-83
2022/01/24 09:18:30;;;;;;;32.57;15.37;;;;;;;3.31;47.07;100637.41;5034189;28;20623;-83
2022/01/24 09:20:56;;;;;;;36.00;16.07;;;;;;;3.35;47.00;100651.09;5033579;28;20158;-83
2022/01/24 09:23:22;;;;;;;36.57;18.93;;;;;;;2.67;46.19;100572.19;5033866;28;20423;-83
2022/01/24 09:25:49;;;;;;;30.90;14.13;;;;;;;3.31;45.51;100632.41;5033750;28;20404;-84
2022/01/24 09:28:15;;;;;;;26.73;13.23;;;;;;;1.66;44.76;100344.63;5034077;28;20456;-83
2022/01/24 09:30:41;;;;;;;25.93;12.63;;;;;;;3.25;45.59;100640.97;5034741;28;20783;-83
2022/01/24 09:33:06;;;;;;;29.37;14.90;;;;;;;2.41;45.41;100511.41;5034083;28;20694;-84
2022/01/24 09:35:32;;;;;;;21.53;11.80;;;;;;;2.80;45.64;100615.97;5034269;28;20189;-83
2022/01/24 09:37:58;;;;;;;30.97;13.30;;;;;;;1.04;46.59;100390.22;5034502;28;20225;-83
2022/01/24 09:40:24;;;;;;;27.77;13.83;;;;;;;1.08;47.19;100450.47;5034061;28;20170;-83
2022/01/24 09:42:49;;;;;;;24.67;12.07;;;;;;;1.19;46.18;100427.44;5015655;28;20199;-84
2022/01/24 09:45:16;;;;;;;29.43;14.47;;;;;;;0.44;46.86;100317.88;5016424;28;20503;-85
2022/01/24 09:47:42;;;;;;;51.03;26.23;;;;;;;-0.10;52.37;100263.56;5034303;28;20273;-84
2022/01/24 09:50:11;;;;;;;38.60;16.87;;;;;;;0.30;53.50;100346.38;5034464;28;20406;-82
2022/01/24 09:52:40;;;;;;;35.07;17.87;;;;;;;1.72;54.95;100646.31;5015621;28;20432;-83
2022/01/24 09:55:06;;;;;;;54.87;21.87;;;;;;;-0.20;56.07;100356.34;5033911;28;20405;-82
2022/01/24 09:57:33;;;;;;;55.40;25.93;;;;;;;1.24;56.19;100510.19;5033641;28;20531;-85
2022/01/24 09:59:58;;;;;;;48.63;23.73;;;;;;;-0.86;57.14;100193.81;5033844;28;20783;-84
2022/01/24 10:02:25;;;;;;;33.33;15.77;;;;;;;-0.43;57.23;100339.81;5023019;28;21023;-82
2022/01/24 10:04:51;;;;;;;37.57;19.40;;;;;;;-1.20;57.71;100166.28;5033566;28;20165;-84
2022/01/24 10:07:17;;;;;;;35.57;17.30;;;;;;;-0.71;56.85;100242.56;5032913;28;22415;-83
2022/01/24 10:09:54;;;;;;;34.60;15.33;;;;;;;1.75;52.53;100634.16;5033479;28;20253;-83
2022/01/24 10:17:52;;;;;;;18.37;9.03;;;;;;;1.21;51.68;100576.34;5033797;28;20224;-83
2022/01/24 10:20:31;;;;;;;28.93;13.53;;;;;;;1.54;51.92;100625.44;5033663;28;20409;-84
2022/01/24 10:23:05;;;;;;;31.53;14.97;;;;;;;1.40;52.67;100629.81;5033146;28;20555;-84
2022/01/24 10:25:31;;;;;;;22.47;10.47;;;;;;;1.44;51.98;100626.88;5014872;28;20458;-85
2022/01/24 10:28:02;;;;;;;17.60;7.60;;;;;;;1.69;49.12;100611.97;5015218;28;20444;-83
2022/01/24 10:30:29;;;;;;;13.40;6.43;;;;;;;1.18;48.39;100567.81;5014577;28;20860;-84
2022/01/24 10:32:56;;;;;;;17.27;8.40;;;;;;;0.64;48.92;100397.91;5032236;28;20401;-84
2022/01/24 10:35:21;;;;;;;22.83;10.23;;;;;;;2.44;47.52;100620.06;5033313;28;20447;-84
2022/01/24 10:37:52;;;;;;;18.47;8.33;;;;;;;1.96;46.87;100453.94;5015547;28;20440;-82
2022/01/24 10:40:46;;;;;;;20.23;8.27;;;;;;;2.85;45.69;100519.78;5030440;28;20209;-82
2022/01/24 10:43:23;;;;;;;18.10;8.30;;;;;;;2.85;44.60;100411.38;5031928;28;20471;-84
2022/01/24 10:45:50;;;;;;;24.43;10.47;;;;;;;2.86;46.61;100524.03;5032234;28;20416;-83
2022/01/24 10:48:21;;;;;;;21.57;9.37;;;;;;;3.17;49.03;100621.88;5032840;28;20487;-84
2022/01/24 10:50:46;;;;;;;22.13;11.10;;;;;;;2.27;48.31;100407.72;5032787;28;20821;-83
2022/01/24 10:53:15;;;;;;;25.80;12.63;;;;;;;2.45;47.99;100439.38;5031286;28;20478;-84
2022/01/24 10:55:43;;;;;;;16.37;7.43;;;;;;;2.98;46.74;100621.81;5035085;28;20170;-83
2022/01/24 10:58:18;;;;;;;17.10;7.93;;;;;;;3.11;46.87;100613.81;5035525;28;20417;-84
2022/01/24 11:00:45;;;;;;;28.97;12.23;;;;;;;1.22;47.80;100247.31;5039925;28;20931;-83
2022/01/24 11:03:17;;;;;;;30.67;13.73;;;;;;;1.73;46.53;100313.66;5023327;28;20464;-84
2022/01/24 11:05:43;;;;;;;16.97;7.23;;;;;;;1.20;44.67;100366.00;5037829;28;20408;-84
2022/01/24 11:08:21;;;;;;;14.00;7.77;;;;;;;1.57;45.51;100540.88;5036191;28;20457;-85
2022/01/24 11:10:50;;;;;;;18.87;8.40;;;;;;;-0.06;47.83;100270.63;5038461;28;20396;-84
2022/01/24 11:13:20;;;;;;;10.50;5.47;;;;;;;0.36;45.00;100451.59;5038524;28;20962;-83
2022/01/24 11:15:55;;;;;;;13.73;7.57;;;;;;;1.25;43.46;100564.31;5052677;28;20409;-83
2022/01/24 11:18:24;;;;;;;14.57;7.37;;;;;;;-0.80;43.48;100191.94;5051614;28;20487;-84
2022/01/24 11:21:00;;;;;;;13.43;7.23;;;;;;;1.35;43.91;100523.69;5043629;28;20412;-84
2022/01/24 11:23:26;;;;;;;18.40;8.13;;;;;;;-0.83;45.15;100136.97;5016498;28;20499;-84
2022/01/24 11:25:57;;;;;;;28.80;12.30;;;;;;;1.98;45.88;100636.38;5034796;28;20405;-84
2022/01/24 11:28:25;;;;;;;22.13;9.90;;;;;;;2.20;45.89;100610.19;5033614;28;20454;-84
2022/01/24 11:31:02;;;;;;;20.47;9.57;;;;;;;2.86;45.33;100620.66;5036234;28;20399;-84
2022/01/24 11:33:35;;;;;;;16.57;7.60;;;;;;;1.27;43.07;100359.97;5034947;28;20928;-85
2022/01/24 11:36:03;;;;;;;22.00;10.90;;;;;;;1.05;43.77;100407.78;5015794;28;20508;-84
2022/01/24 11:38:38;;;;;;;28.63;14.40;;;;;;;0.75;44.52;100371.53;5037934;28;20435;-83
2022/01/24 11:41:04;;;;;;;22.07;10.50;;;;;;;2.34;44.74;100610.78;5015709;28;20405;-83
2022/01/24 11:43:40;;;;;;;20.37;8.63;;;;;;;2.13;44.21;100628.75;5016232;28;20401;-85
2022/01/24 11:46:45;;;;;;;11.40;6.23;;;;;;;1.76;43.83;100654.25;5028926;28;20408;-83
2022/01/24 11:49:19;;;;;;;32.37;12.60;;;;;;;1.77;44.16;100616.09;5018830;28;20456;-83
2022/01/24 11:51:49;;;;;;;78.60;27.67;;;;;;;1.08;43.08;100427.16;5016792;28;20795;-84
2022/01/24 11:57:22;;;;;;;35.20;15.50;;;;;;;1.50;44.18;100622.50;5013081;28;20406;-85
2022/01/24 12:00:11;;;;;;;33.17;15.43;;;;;;;1.24;45.17;100614.06;5033170;28;20419;-83
2022/01/24 12:02:43;;;;;;;27.10;10.87;;;;;;;1.02;45.35;100613.53;4967517;28;20903;-81
2022/01/24 12:05:10;;;;;;;26.73;9.97;;;;;;;0.98;44.71;100623.94;4981566;28;20462;-83
2022/01/24 12:07:50;;;;;;;20.37;9.47;;;;;;;-0.48;44.47;100428.88;4987855;28;20455;-84
2022/01/24 12:10:26;;;;;;;11.93;6.73;;;;;;;0.49;43.83;100616.50;4980289;28;20938;-83
2022/01/24 12:12:55;;;;;;;14.10;7.18;;;;;;;0.30;44.70;100622.78;4975214;28;20404;-83
2022/01/24 12:15:38;;;;;;;29.92;12.15;;;;;;;0.45;45.33;100621.00;4972849;28;20205;-85
2022/01/24 12:18:29;;;;;;;25.90;10.20;;;;;;;-0.06;45.09;100534.41;4973555;28;20171;-83
2022/01/24 12:20:54;;;;;;;25.90;9.13;;;;;;;0.84;44.53;100619.16;4898768;29;20194;-84
2022/01/24 12:23:19;;;;;;;15.93;7.03;;;;;;;1.26;42.71;100615.97;4902501;29;20206;-84
2022/01/24 12:26:07;;;;;;;18.03;7.77;;;;;;;1.62;42.19;100618.72;4899664;29;20206;-84
2022/01/24 12:28:46;;;;;;;25.67;10.83;;;;;;;1.63;42.26;100615.47;4887125;29;20214;-83
2022/01/24 12:31:34;;;;;;;14.77;6.33;;;;;;;2.04;42.30;100615.34;4910109;29;20419;-84
2022/01/24 12:34:02;;;;;;;29.77;11.57;;;;;;;2.13;41.92;100620.34;4902953;29;20474;-83
2022/01/24 12:36:50;;;;;;;20.83;9.20;;;;;;;2.49;41.86;100618.84;4889866;29;20466;-84
2022/01/24 12:39:26;;;;;;;25.07;11.67;;;;;;;2.68;41.03;100622.34;4908449;29;20443;-84
2022/01/24 12:41:57;;;;;;;17.23;7.60;;;;;;;1.88;39.83;100437.38;4962923;29;20420;-84
2022/01/24 12:47:09;;;;;;;46.77;16.57;;;;;;;3.36;38.61;100588.66;4957919;28;20422;-84
2022/01/24 12:49:35;;;;;;;18.83;8.93;;;;;;;2.65;38.82;100563.69;4962208;29;20615;-85
2022/01/24 12:52:02;;;;;;;21.43;9.87;;;;;;;2.72;39.99;100643.53;4959512;29;20432;-84
2022/01/24 12:54:33;;;;;;;15.00;7.90;;;;;;;2.60;40.08;100638.25;4944403;29;20309;-85
2022/01/24 12:57:07;;;;;;;35.73;13.73;;;;;;;2.36;40.54;100588.47;4975194;28;20817;-83
2022/01/24 12:59:35;;;;;;;15.27;8.10;;;;;;;1.83;40.57;100493.47;5041117;28;20405;-84
2022/01/24 13:02:03;;;;;;;27.60;10.90;;;;;;;1.05;39.82;100410.28;5029010;28;20460;-84
2022/01/24 13:04:31;;;;;;;18.27;7.90;;;;;;;2.05;40.71;100643.72;5037609;28;20823;-83
2022/01/24 13:06:57;;;;;;;53.30;17.90;;;;;;;1.65;41.42;100644.84;5040725;28;20507;-84